Terminal Aerodrome Forecast
Issued by NWS Charleston, WV

Home | Current Version | Previous Version | Text Only | Print | Product List | Glossary On
Versions: 1 2 3 4 5 6 7 8 9 10 11 12 13 14 15 16 17 18 19 20 21
000
FTUS41 KRLX 270500
TAFPKB
TAF
KPKB 270533Z 2706/2806 00000KT 1/4SM FG OVC003
     FM270900 00000KT 1SM BR SCT001 BKN009
     FM271100 00000KT 3SM BR BKN020
     FM271200 VRB03KT 6SM BR SCT025
     FM271600 29008KT P6SM BKN030
     FM272000 28007KT 6SM BR BKN035=

USA.gov is the U.S. government's official web portal to all federal, state and local government web resources and services.